createdAt,value
2023-04-19T00:01:17.183Z,8.75
2023-04-19T00:03:34.725Z,8.85
2023-04-19T00:05:52.250Z,8.30
2023-04-19T00:08:10.258Z,8.63
2023-04-19T00:10:27.261Z,9.00
2023-04-19T00:12:44.325Z,8.48
2023-04-19T00:15:01.629Z,8.80
2023-04-19T00:17:19.631Z,8.38
2023-04-19T00:19:37.715Z,8.85
2023-04-19T00:21:55.042Z,7.82
2023-04-19T00:24:12.142Z,7.93
2023-04-19T00:26:29.145Z,8.00
2023-04-19T00:28:46.395Z,8.13
2023-04-19T00:31:03.656Z,7.95
2023-04-19T00:33:21.783Z,8.20
2023-04-19T00:35:39.095Z,7.68
2023-04-19T00:37:57.135Z,7.38
2023-04-19T00:40:14.075Z,7.65
2023-04-19T00:42:31.196Z,8.00
2023-04-19T00:44:48.248Z,7.82
2023-04-19T00:47:05.635Z,7.88
2023-04-19T00:49:22.578Z,7.68
2023-04-19T00:51:39.532Z,7.40
2023-04-19T00:53:56.574Z,7.03
2023-04-19T00:56:13.489Z,7.20
2023-04-19T00:58:30.737Z,6.95
2023-04-19T01:00:47.779Z,7.50
2023-04-19T01:03:05.124Z,7.43
2023-04-19T01:05:22.253Z,6.90
2023-04-19T01:07:39.275Z,6.90
2023-04-19T01:09:56.682Z,7.22
2023-04-19T01:12:13.706Z,7.38
2023-04-19T01:14:31.230Z,6.88
2023-04-19T01:16:49.517Z,6.90
2023-04-19T01:19:06.614Z,6.75
2023-04-19T01:21:23.542Z,6.88
2023-04-19T01:23:41.727Z,6.28
2023-04-19T01:25:59.972Z,6.40
2023-04-19T01:28:17.248Z,7.32
2023-04-19T01:30:34.304Z,7.22
2023-04-19T01:32:51.778Z,6.32
2023-04-19T01:35:09.804Z,7.25
2023-04-19T01:37:27.166Z,6.82
2023-04-19T01:39:44.159Z,6.80
2023-04-19T01:42:02.462Z,6.50
2023-04-19T01:44:19.711Z,7.15
2023-04-19T01:46:36.732Z,7.40
2023-04-19T01:48:54.127Z,6.50
2023-04-19T01:51:11.367Z,6.45
2023-04-19T01:53:28.414Z,7.10
2023-04-19T01:55:45.484Z,6.88
2023-04-19T01:58:02.788Z,6.22
2023-04-19T02:00:19.780Z,6.28
2023-04-19T02:02:38.227Z,6.63
2023-04-19T02:04:55.769Z,6.00
2023-04-19T02:07:13.644Z,6.45
2023-04-19T02:09:30.948Z,6.75
2023-04-19T02:11:47.889Z,5.97
2023-04-19T02:14:05.229Z,6.18
2023-04-19T02:16:22.305Z,6.47
2023-04-19T02:18:39.573Z,6.47
2023-04-19T02:20:56.649Z,6.60
2023-04-19T02:23:13.623Z,5.57
2023-04-19T02:25:30.613Z,6.35
2023-04-19T02:27:47.658Z,6.13
2023-04-19T02:30:05.705Z,6.65
2023-04-19T02:32:22.853Z,6.45
2023-04-19T02:34:42.674Z,6.40
2023-04-19T02:37:00.001Z,5.68
2023-04-19T02:39:16.974Z,6.03
2023-04-19T02:41:34.025Z,6.68
2023-04-19T02:43:51.286Z,6.22
2023-04-19T02:46:08.397Z,6.18
2023-04-19T02:48:25.435Z,6.22
2023-04-19T02:50:42.465Z,6.57
2023-04-19T02:52:59.474Z,6.30
2023-04-19T02:55:17.468Z,6.10
2023-04-19T02:57:34.402Z,6.13
2023-04-19T02:59:51.713Z,6.07
2023-04-19T03:02:09.105Z,6.45
2023-04-19T03:04:27.471Z,6.15
2023-04-19T03:06:44.471Z,6.20
2023-04-19T03:09:02.788Z,6.45
2023-04-19T03:11:20.090Z,6.57
2023-04-19T03:13:37.202Z,6.18
2023-04-19T03:15:54.278Z,6.43
2023-04-19T03:18:11.605Z,7.13
2023-04-19T03:20:28.523Z,6.47
2023-04-19T03:22:45.458Z,6.60
2023-04-19T03:25:02.383Z,6.90
2023-04-19T03:27:19.545Z,6.60
2023-04-19T03:29:36.470Z,6.40
2023-04-19T03:31:53.495Z,6.18
2023-04-19T03:34:11.667Z,6.47
2023-04-19T03:36:28.913Z,6.25
2023-04-19T03:38:46.124Z,6.20
2023-04-19T03:41:03.350Z,5.15
2023-04-19T03:43:20.367Z,6.03
2023-04-19T03:45:37.403Z,6.30
2023-04-19T03:47:54.440Z,6.32
2023-04-19T03:50:11.503Z,7.18
2023-04-19T03:52:29.110Z,6.43
2023-04-19T03:54:46.707Z,5.97
2023-04-19T03:57:04.722Z,6.63
2023-04-19T03:59:21.968Z,7.20
2023-04-19T04:01:40.172Z,6.75
2023-04-19T04:03:57.748Z,6.53
2023-04-19T04:06:15.074Z,6.75
2023-04-19T04:08:32.093Z,6.30
2023-04-19T04:10:49.009Z,5.70
2023-04-19T04:13:06.331Z,6.25
2023-04-19T04:15:23.384Z,6.32
2023-04-19T04:17:41.745Z,6.47
2023-04-19T04:19:59.038Z,6.53
2023-04-19T04:22:16.388Z,6.32
2023-04-19T04:24:33.289Z,5.75
2023-04-19T04:26:50.265Z,6.90
2023-04-19T04:29:07.309Z,6.38
2023-04-19T04:31:24.307Z,6.22
2023-04-19T04:33:42.387Z,6.20
2023-04-19T04:35:59.416Z,6.78
2023-04-19T04:38:24.104Z,6.47
2023-04-19T04:40:42.202Z,6.05
2023-04-19T04:42:59.176Z,6.65
2023-04-19T04:45:17.135Z,7.70
2023-04-19T04:47:34.152Z,6.90
2023-04-19T04:49:51.242Z,6.90
2023-04-19T04:52:08.457Z,6.22
2023-04-19T04:54:25.384Z,6.70
2023-04-19T04:56:42.423Z,7.10
2023-04-19T04:58:59.797Z,6.75
2023-04-19T05:01:16.829Z,7.28
2023-04-19T05:03:34.870Z,6.90
2023-04-19T05:05:52.170Z,6.90
2023-04-19T05:08:09.205Z,7.65
2023-04-19T05:10:26.179Z,6.85
2023-04-19T05:12:43.459Z,9.52
2023-04-19T05:15:00.441Z,8.30
2023-04-19T05:17:17.727Z,7.30
2023-04-19T05:19:34.661Z,7.70
2023-04-19T05:21:51.718Z,7.30
2023-04-19T05:24:08.738Z,7.45
2023-04-19T05:26:25.667Z,9.43
2023-04-19T05:28:42.769Z,8.27
2023-04-19T05:30:59.828Z,7.50
2023-04-19T05:33:16.908Z,8.07
2023-04-19T05:35:34.211Z,8.85
2023-04-19T05:37:51.174Z,9.32
2023-04-19T05:40:08.182Z,8.68
2023-04-19T05:42:25.158Z,8.57
2023-04-19T05:44:42.419Z,7.85
2023-04-19T05:47:00.458Z,7.78
2023-04-19T05:49:17.443Z,8.32
2023-04-19T05:51:34.448Z,8.10
2023-04-19T05:53:52.690Z,8.43
2023-04-19T05:56:10.720Z,8.38
2023-04-19T05:58:27.778Z,8.02
2023-04-19T06:00:45.052Z,7.93
2023-04-19T06:03:02.379Z,7.35
2023-04-19T06:05:19.491Z,7.70
2023-04-19T06:07:40.686Z,7.45
2023-04-19T06:12:17.586Z,10.38
2023-04-19T06:14:34.813Z,10.02
2023-04-19T06:16:51.686Z,7.15
2023-04-19T06:19:08.725Z,7.30
2023-04-19T06:21:25.783Z,6.78
2023-04-19T06:23:43.745Z,6.75
2023-04-19T06:26:00.798Z,7.13
2023-04-19T06:28:18.045Z,7.05
2023-04-19T06:30:35.094Z,7.15
2023-04-19T06:32:52.066Z,8.05
2023-04-19T06:35:09.329Z,7.55
2023-04-19T06:37:26.520Z,7.85
2023-04-19T06:39:43.611Z,7.47
2023-04-19T06:42:00.744Z,6.88
2023-04-19T06:44:18.087Z,7.35
2023-04-19T06:46:36.664Z,7.57
2023-04-19T06:48:54.930Z,7.38
2023-04-19T06:51:11.966Z,7.63
2023-04-19T06:53:30.232Z,7.90
2023-04-19T06:55:47.538Z,7.28
2023-04-19T06:58:04.824Z,7.13
2023-04-19T07:00:22.846Z,7.22
2023-04-19T07:02:40.074Z,8.07
2023-04-19T07:04:57.215Z,7.88
2023-04-19T07:07:14.511Z,6.90
2023-04-19T07:09:31.540Z,7.13
2023-04-19T07:11:48.837Z,7.68
2023-04-19T07:14:06.049Z,7.20
2023-04-19T07:16:23.113Z,7.50
2023-04-19T07:18:40.002Z,7.97
2023-04-19T07:20:56.993Z,7.95
2023-04-19T07:23:13.985Z,7.53
2023-04-19T07:25:31.200Z,8.98
2023-04-19T07:27:48.453Z,8.15
2023-04-19T07:30:05.486Z,8.23
2023-04-19T07:32:22.634Z,9.10
2023-04-19T07:34:39.712Z,9.00
2023-04-19T07:36:56.748Z,8.55
2023-04-19T07:39:13.781Z,8.75
2023-04-19T07:41:30.814Z,8.05
2023-04-19T07:43:47.766Z,8.40
2023-04-19T07:46:04.796Z,8.32
2023-04-19T07:48:21.753Z,8.18
2023-04-19T07:50:40.103Z,8.73
2023-04-19T07:52:57.181Z,8.20
2023-04-19T07:55:15.124Z,8.15
2023-04-19T07:57:32.160Z,7.65
2023-04-19T07:59:49.385Z,7.95
2023-04-19T08:02:06.458Z,8.35
2023-04-19T08:04:24.143Z,8.52
2023-04-19T08:06:41.632Z,8.15
2023-04-19T08:08:58.846Z,7.78
2023-04-19T08:11:16.996Z,8.02
2023-04-19T08:13:33.916Z,8.00
2023-04-19T08:16:27.194Z,7.38
2023-04-19T08:18:29.024Z,7.35
2023-04-19T08:20:46.072Z,7.22
2023-04-19T08:23:13.988Z,7.22
2023-04-19T08:25:38.245Z,7.90
2023-04-19T08:27:55.434Z,8.02
2023-04-19T08:30:13.675Z,8.40
2023-04-19T08:32:30.756Z,8.32
2023-04-19T08:34:47.871Z,9.00
2023-04-19T08:37:05.255Z,8.00
2023-04-19T08:39:32.366Z,8.02
2023-04-19T08:42:02.573Z,7.45
2023-04-19T08:44:32.530Z,7.45
2023-04-19T08:46:53.234Z,7.97
2023-04-19T08:49:10.408Z,7.78
2023-04-19T08:51:27.706Z,7.53
2023-04-19T08:53:44.960Z,8.15
2023-04-19T08:56:10.854Z,7.32
2023-04-19T08:58:45.911Z,7.60
2023-04-19T09:01:12.894Z,8.52
2023-04-19T09:03:36.354Z,7.60
2023-04-19T09:05:58.123Z,7.80
2023-04-19T09:08:16.256Z,6.85
2023-04-19T09:10:33.546Z,7.78
2023-04-19T09:12:50.821Z,7.38
2023-04-19T09:15:07.822Z,8.38
2023-04-19T09:17:24.782Z,7.47
2023-04-19T09:19:41.791Z,7.80
2023-04-19T09:21:58.796Z,7.70
2023-04-19T09:24:17.055Z,6.78
2023-04-19T09:26:34.389Z,7.60
2023-04-19T09:28:51.375Z,7.30
2023-04-19T09:31:26.343Z,7.28
2023-04-19T09:33:45.527Z,7.45
2023-04-19T09:36:02.545Z,7.40
2023-04-19T09:38:19.594Z,7.78
2023-04-19T09:40:36.511Z,8.23
2023-04-19T09:45:29.357Z,7.75
2023-04-19T09:47:47.370Z,7.90
2023-04-19T09:50:11.793Z,7.97
2023-04-19T09:52:38.945Z,8.00
2023-04-19T09:54:56.016Z,8.73
2023-04-19T09:57:12.990Z,8.18
2023-04-19T09:59:30.026Z,7.38
2023-04-19T10:01:47.072Z,8.43
2023-04-19T10:04:14.793Z,7.55
2023-04-19T10:06:58.163Z,8.18
2023-04-19T10:09:14.149Z,8.18
2023-04-19T10:11:31.738Z,7.70
2023-04-19T10:13:49.041Z,7.85
2023-04-19T10:16:17.964Z,7.97
2023-04-19T10:18:36.157Z,7.55
2023-04-19T10:20:54.231Z,7.85
2023-04-19T10:23:11.283Z,7.50
2023-04-19T10:25:28.496Z,7.32
2023-04-19T10:27:48.301Z,6.70
2023-04-19T10:30:07.494Z,7.10
2023-04-19T10:32:24.962Z,7.53
2023-04-19T10:34:42.199Z,7.22
2023-04-19T10:36:59.465Z,7.93
2023-04-19T10:39:16.604Z,7.38
2023-04-19T10:41:34.624Z,7.47
2023-04-19T10:43:51.860Z,7.03
2023-04-19T10:46:09.995Z,6.65
2023-04-19T10:48:26.963Z,6.82
2023-04-19T10:50:44.244Z,6.63
2023-04-19T10:53:01.512Z,6.43
2023-04-19T10:55:19.547Z,6.57
2023-04-19T10:57:36.812Z,6.55
2023-04-19T10:59:54.080Z,5.95
2023-04-19T11:02:11.170Z,6.13
2023-04-19T11:04:28.947Z,6.03
2023-04-19T11:06:46.407Z,5.65
2023-04-19T11:09:03.476Z,6.65
2023-04-19T11:11:21.455Z,6.03
2023-04-19T11:13:38.327Z,6.53
2023-04-19T11:15:55.413Z,6.15
2023-04-19T11:18:13.308Z,6.20
2023-04-19T11:20:30.676Z,5.82
2023-04-19T11:22:48.720Z,5.78
2023-04-19T11:25:05.980Z,5.45
2023-04-19T11:27:23.052Z,5.75
2023-04-19T11:29:40.113Z,5.43
2023-04-19T11:31:57.118Z,5.15
2023-04-19T11:34:14.397Z,5.38
2023-04-19T11:36:31.672Z,5.07
2023-04-19T11:38:48.970Z,5.10
2023-04-19T11:41:06.251Z,5.22
2023-04-19T11:43:23.248Z,5.13
2023-04-19T11:45:40.678Z,5.32
2023-04-19T11:47:57.704Z,4.78
2023-04-19T11:50:14.823Z,5.55
2023-04-19T11:52:32.143Z,5.03
2023-04-19T11:54:49.261Z,4.95
2023-04-19T11:57:06.187Z,5.10
2023-04-19T11:59:23.179Z,5.18
2023-04-19T12:01:40.205Z,5.07
2023-04-19T12:03:57.619Z,4.65
2023-04-19T12:06:14.950Z,4.65
2023-04-19T12:08:32.264Z,4.43
2023-04-19T12:10:50.324Z,4.85
2023-04-19T12:13:07.310Z,4.10
2023-04-19T12:15:25.887Z,4.05
2023-04-19T12:17:54.644Z,4.47
2023-04-19T12:20:14.378Z,4.28
2023-04-19T12:22:31.366Z,4.10
2023-04-19T12:24:48.311Z,4.15
2023-04-19T12:27:05.241Z,3.72
2023-04-19T12:29:23.753Z,3.72
2023-04-19T12:31:40.635Z,3.70
2023-04-19T12:33:57.676Z,3.53
2023-04-19T12:36:14.583Z,3.90
2023-04-19T12:38:31.511Z,3.97
2023-04-19T12:40:48.569Z,3.90
2023-04-19T12:43:05.579Z,3.65
2023-04-19T12:45:22.792Z,4.13
2023-04-19T12:47:39.958Z,3.33
2023-04-19T12:49:58.379Z,3.47
2023-04-19T12:52:15.620Z,3.30
2023-04-19T12:54:32.582Z,3.40
2023-04-19T12:56:49.589Z,3.80
2023-04-19T12:59:06.632Z,3.30
2023-04-19T13:01:24.153Z,3.40
2023-04-19T13:03:42.118Z,3.45
2023-04-19T13:05:59.549Z,3.20
2023-04-19T13:08:16.864Z,3.10
2023-04-19T13:10:33.874Z,3.60
2023-04-19T13:12:50.975Z,3.38
2023-04-19T13:15:08.303Z,4.00
2023-04-19T13:17:26.276Z,3.22
2023-04-19T13:19:43.278Z,3.42
2023-04-19T13:22:00.293Z,3.70
2023-04-19T13:24:17.609Z,3.30
2023-04-19T13:26:35.299Z,3.00
2023-04-19T13:28:52.532Z,3.28
2023-04-19T13:31:10.551Z,3.55
2023-04-19T13:33:27.620Z,3.63
2023-04-19T13:35:44.695Z,3.38
2023-04-19T13:38:01.984Z,3.35
2023-04-19T13:40:20.079Z,3.42
2023-04-19T13:42:37.089Z,3.28
2023-04-19T13:44:54.382Z,3.25
2023-04-19T13:47:12.381Z,3.70
2023-04-19T13:49:29.428Z,3.65
2023-04-19T13:51:50.606Z,3.15
2023-04-19T13:54:08.310Z,3.97
2023-04-19T13:56:25.313Z,3.83
2023-04-19T13:58:42.347Z,4.20
2023-04-19T14:00:59.404Z,3.67
2023-04-19T14:03:17.634Z,3.50
2023-04-19T14:05:34.796Z,8.38
2023-04-19T14:07:52.123Z,4.32
2023-04-19T14:10:09.043Z,3.25
2023-04-19T14:12:26.117Z,3.33
2023-04-19T14:14:44.179Z,3.80
2023-04-19T14:17:01.213Z,3.35
2023-04-19T14:19:18.425Z,3.70
2023-04-19T14:21:35.301Z,3.20
2023-04-19T14:23:52.340Z,3.10
2023-04-19T14:26:10.388Z,3.60
2023-04-19T14:28:28.385Z,3.20
2023-04-19T14:30:45.404Z,3.05
2023-04-19T14:33:02.527Z,3.50
2023-04-19T14:35:19.635Z,3.30
2023-04-19T14:37:36.684Z,3.30
2023-04-19T14:39:53.797Z,3.53
2023-04-19T14:42:10.832Z,2.90
2023-04-19T14:44:28.087Z,2.97
2023-04-19T14:46:45.297Z,3.03
2023-04-19T14:49:02.387Z,2.75
2023-04-19T14:51:19.455Z,2.95
2023-04-19T14:53:36.492Z,2.80
2023-04-19T14:55:53.385Z,2.70
2023-04-19T14:58:10.435Z,2.83
2023-04-19T15:00:27.484Z,2.45
2023-04-19T15:02:44.602Z,2.80
2023-04-19T15:05:03.148Z,2.30
2023-04-19T15:07:20.697Z,2.67
2023-04-19T15:09:37.705Z,2.38
2023-04-19T15:11:54.714Z,3.50
2023-04-19T15:14:12.006Z,2.33
2023-04-19T15:16:29.961Z,1.90
2023-04-19T15:18:47.330Z,1.90
2023-04-19T15:21:04.600Z,1.90
2023-04-19T15:23:21.803Z,4.30
2023-04-19T15:25:38.727Z,2.60
2023-04-19T15:27:55.746Z,2.00
2023-04-19T15:30:12.707Z,1.85
2023-04-19T15:32:29.764Z,2.13
2023-04-19T15:34:46.818Z,2.03
2023-04-19T15:37:03.828Z,1.92
2023-04-19T15:39:20.838Z,2.08
2023-04-19T15:41:37.852Z,2.00
2023-04-19T15:43:54.892Z,1.70
2023-04-19T15:46:13.020Z,1.55
2023-04-19T15:48:30.053Z,1.30
2023-04-19T15:50:47.276Z,1.60
2023-04-19T15:53:04.560Z,1.77
2023-04-19T15:55:22.428Z,1.70
2023-04-19T15:57:39.663Z,2.00
2023-04-19T15:59:56.561Z,1.83
2023-04-19T16:02:13.975Z,1.60
2023-04-19T16:04:31.023Z,1.67
2023-04-19T16:06:48.382Z,1.85
2023-04-19T16:09:05.611Z,2.00
2023-04-19T16:11:23.562Z,1.85
2023-04-19T16:13:40.559Z,1.70
2023-04-19T16:15:57.604Z,1.42
2023-04-19T16:18:14.893Z,1.80
2023-04-19T16:20:31.829Z,1.70
2023-04-19T16:22:48.890Z,1.83
2023-04-19T16:25:06.267Z,1.70
2023-04-19T16:27:23.153Z,1.65
2023-04-19T16:29:40.459Z,1.65
2023-04-19T16:31:57.760Z,1.70
2023-04-19T16:34:14.679Z,1.50
2023-04-19T16:36:31.710Z,1.60
2023-04-19T16:38:48.993Z,1.70
2023-04-19T16:41:05.943Z,1.80
2023-04-19T16:43:22.956Z,1.95
2023-04-19T16:45:39.998Z,1.90
2023-04-19T16:47:56.993Z,1.85
2023-04-19T16:50:14.009Z,1.60
2023-04-19T16:52:30.918Z,1.67
2023-04-19T16:54:47.967Z,1.67
2023-04-19T16:57:05.033Z,1.98
2023-04-19T16:59:22.041Z,1.60
2023-04-19T17:01:39.381Z,1.60
2023-04-19T17:03:57.029Z,1.63
2023-04-19T17:06:14.358Z,1.40
2023-04-19T17:08:31.358Z,1.75
2023-04-19T17:10:48.266Z,1.60
2023-04-19T17:13:05.259Z,1.35
2023-04-19T17:15:22.366Z,2.08
2023-04-19T17:17:39.475Z,1.75
2023-04-19T17:19:56.916Z,1.90
2023-04-19T17:22:13.974Z,1.58
2023-04-19T17:24:30.999Z,1.80
2023-04-19T17:26:48.239Z,1.60
2023-04-19T17:29:05.483Z,1.58
2023-04-19T17:31:22.459Z,1.80
2023-04-19T17:33:39.594Z,1.88
2023-04-19T17:35:57.859Z,2.63
2023-04-19T17:38:14.802Z,2.55
2023-04-19T17:40:32.044Z,2.60
2023-04-19T17:42:49.126Z,2.80
2023-04-19T17:45:06.099Z,2.63
2023-04-19T17:47:23.212Z,3.00
2023-04-19T17:49:40.529Z,2.95
2023-04-19T17:51:57.484Z,3.13
2023-04-19T17:54:15.503Z,3.03
2023-04-19T17:56:32.532Z,2.70
2023-04-19T17:58:49.393Z,3.20
2023-04-19T18:01:06.775Z,3.45
2023-04-19T18:03:24.100Z,2.72
2023-04-19T18:05:41.140Z,3.08
2023-04-19T18:07:58.154Z,2.60
2023-04-19T18:10:16.129Z,2.28
2023-04-19T18:12:33.118Z,2.20
2023-04-19T18:14:50.394Z,2.38
2023-04-19T18:17:07.614Z,2.65
2023-04-19T18:19:24.940Z,2.35
2023-04-19T18:21:42.214Z,2.40
2023-04-19T18:23:59.256Z,2.53
2023-04-19T18:26:16.271Z,2.20
2023-04-19T18:28:33.745Z,2.70
2023-04-19T18:30:50.969Z,2.60
2023-04-19T18:33:08.037Z,2.45
2023-04-19T18:35:26.027Z,2.50
2023-04-19T18:37:43.037Z,2.50
2023-04-19T18:39:59.966Z,2.70
2023-04-19T18:42:16.955Z,2.55
2023-04-19T18:44:52.130Z,2.85
2023-04-19T18:47:11.142Z,2.60
2023-04-19T18:49:28.150Z,2.47
2023-04-19T18:51:45.142Z,2.20
2023-04-19T18:54:02.390Z,2.47
2023-04-19T18:56:19.437Z,1.85
2023-04-19T18:58:37.306Z,2.30
2023-04-19T19:00:54.378Z,2.90
2023-04-19T19:03:32.161Z,2.20
2023-04-19T19:05:48.788Z,2.45
2023-04-19T19:08:06.945Z,2.30
2023-04-19T19:12:43.590Z,2.38
2023-04-19T19:15:00.535Z,2.60
2023-04-19T19:17:17.608Z,2.25
2023-04-19T19:19:34.631Z,2.35
2023-04-19T19:21:51.873Z,2.28
2023-04-19T19:24:09.217Z,2.30
2023-04-19T19:26:26.525Z,2.50
2023-04-19T19:28:43.571Z,2.67
2023-04-19T19:31:00.565Z,2.30
2023-04-19T19:33:17.622Z,2.13
2023-04-19T19:35:34.991Z,2.53
2023-04-19T19:37:52.149Z,2.15
2023-04-19T19:40:11.041Z,2.38
2023-04-19T19:42:28.568Z,2.38
2023-04-19T19:44:45.826Z,2.35
2023-04-19T19:47:09.172Z,2.33
2023-04-19T19:49:27.449Z,2.40
2023-04-19T19:51:57.633Z,2.40
2023-04-19T19:54:15.953Z,2.50
2023-04-19T19:56:34.832Z,2.53
2023-04-19T19:58:52.438Z,2.70
2023-04-19T20:01:10.351Z,3.30
2023-04-19T20:03:36.920Z,3.53
2023-04-19T20:05:57.282Z,3.05
2023-04-19T20:08:14.642Z,2.60
2023-04-19T20:10:32.179Z,2.88
2023-04-19T20:12:50.079Z,3.03
2023-04-19T20:15:07.102Z,2.85
2023-04-19T20:17:24.391Z,3.08
2023-04-19T20:19:41.435Z,2.60
2023-04-19T20:21:58.677Z,3.22
2023-04-19T20:24:17.890Z,3.10
2023-04-19T20:26:34.979Z,2.67
2023-04-19T20:28:52.009Z,2.92
2023-04-19T20:31:09.120Z,2.50
2023-04-19T20:33:26.056Z,2.80
2023-04-19T20:35:43.081Z,2.78
2023-04-19T20:38:00.173Z,2.90
2023-04-19T20:40:18.474Z,2.67
2023-04-19T20:42:35.412Z,2.80
2023-04-19T20:44:52.712Z,2.70
2023-04-19T20:47:10.763Z,2.70
2023-04-19T20:49:28.157Z,2.88
2023-04-19T20:51:45.730Z,2.67
2023-04-19T20:54:02.654Z,2.50
2023-04-19T20:56:19.665Z,2.50
2023-04-19T20:58:36.537Z,2.70
2023-04-19T21:00:53.873Z,2.80
2023-04-19T21:03:11.156Z,2.50
2023-04-19T21:05:28.668Z,2.63
2023-04-19T21:07:45.906Z,2.92
2023-04-19T21:10:02.964Z,2.72
2023-04-19T21:12:20.224Z,2.95
2023-04-19T21:14:37.276Z,2.22
2023-04-19T21:16:54.317Z,2.50
2023-04-19T21:19:11.628Z,2.70
2023-04-19T21:21:30.024Z,2.85
2023-04-19T21:23:48.827Z,2.70
2023-04-19T21:26:05.772Z,3.05
2023-04-19T21:28:23.094Z,2.90
2023-04-19T21:30:40.037Z,2.88
2023-04-19T21:32:57.338Z,2.50
2023-04-19T21:35:14.410Z,2.72
2023-04-19T21:37:32.675Z,2.55
2023-04-19T21:39:49.524Z,2.95
2023-04-19T21:42:06.556Z,2.95
2023-04-19T21:44:23.487Z,2.63
2023-04-19T21:46:40.796Z,2.22
2023-04-19T21:48:58.117Z,2.88
2023-04-19T21:51:15.483Z,2.75
2023-04-19T21:53:32.574Z,2.78
2023-04-19T21:55:49.678Z,2.65
2023-04-19T21:58:06.924Z,2.90
2023-04-19T22:00:23.882Z,2.45
2023-04-19T22:02:41.099Z,2.78
2023-04-19T22:04:58.334Z,2.80
2023-04-19T22:07:15.652Z,2.80
2023-04-19T22:09:32.654Z,2.80
2023-04-19T22:11:49.707Z,2.85
2023-04-19T22:14:06.929Z,2.75
2023-04-19T22:16:24.961Z,2.78
2023-04-19T22:18:42.084Z,2.88
2023-04-19T22:20:58.990Z,3.10
2023-04-19T22:23:16.002Z,3.13
2023-04-19T22:25:33.312Z,2.50
2023-04-19T22:27:50.319Z,2.80
2023-04-19T22:30:07.582Z,3.10
2023-04-19T22:32:24.657Z,2.90
2023-04-19T22:34:41.722Z,2.70
2023-04-19T22:36:58.753Z,3.00
2023-04-19T22:39:16.271Z,2.92
2023-04-19T22:41:33.445Z,2.80
2023-04-19T22:43:50.756Z,2.78
2023-04-19T22:46:08.094Z,2.70
2023-04-19T22:48:25.175Z,2.58
2023-04-19T22:50:42.510Z,3.08
2023-04-19T22:52:59.438Z,6.05
2023-04-19T22:55:16.504Z,4.82
2023-04-19T22:57:33.483Z,4.40
2023-04-19T22:59:50.762Z,3.63
2023-04-19T23:02:08.135Z,2.80
2023-04-19T23:04:28.131Z,3.28
2023-04-19T23:06:45.457Z,3.35
2023-04-19T23:09:02.776Z,2.95
2023-04-19T23:11:20.175Z,3.20
2023-04-19T23:13:37.566Z,3.38
2023-04-19T23:15:54.934Z,3.28
2023-04-19T23:18:12.208Z,3.67
2023-04-19T23:20:29.472Z,3.47
2023-04-19T23:22:46.538Z,2.90
2023-04-19T23:25:04.522Z,3.50
2023-04-19T23:27:21.749Z,3.22
2023-04-19T23:29:38.775Z,3.22
2023-04-19T23:31:57.046Z,3.10
2023-04-19T23:34:14.010Z,3.33
2023-04-19T23:36:31.310Z,3.10
2023-04-19T23:38:48.625Z,3.42
2023-04-19T23:41:05.961Z,3.00
2023-04-19T23:43:23.368Z,3.63
2023-04-19T23:45:40.407Z,3.58
2023-04-19T23:47:58.701Z,3.55
2023-04-19T23:50:15.838Z,3.63
2023-04-19T23:52:32.834Z,3.22
2023-04-19T23:54:49.758Z,3.85
2023-04-19T23:57:06.829Z,3.28
2023-04-19T23:59:23.971Z,3.30
